sensor_id;sensor_type;location;lat;lon;timestamp;temperature;humidity
8338;DHT22;4206;48.634;9.516;2022-07-29T00:00:43;18.30;99.90
8338;DHT22;4206;48.634;9.516;2022-07-29T00:03:11;18.40;99.90
8338;DHT22;4206;48.634;9.516;2022-07-29T00:05:40;18.40;99.90
8338;DHT22;4206;48.634;9.516;2022-07-29T00:08:07;18.50;99.90
8338;DHT22;4206;48.634;9.516;2022-07-29T00:10:33;18.50;99.90
8338;DHT22;4206;48.634;9.516;2022-07-29T00:12:59;18.40;99.90
8338;DHT22;4206;48.634;9.516;2022-07-29T00:15:25;18.40;99.90
8338;DHT22;4206;48.634;9.516;2022-07-29T00:17:50;18.30;99.90
8338;DHT22;4206;48.634;9.516;2022-07-29T00:20:16;18.30;99.90
8338;DHT22;4206;48.634;9.516;2022-07-29T00:22:42;18.40;99.90
8338;DHT22;4206;48.634;9.516;2022-07-29T00:25:08;18.30;99.90
8338;DHT22;4206;48.634;9.516;2022-07-29T00:27:35;18.30;99.90
8338;DHT22;4206;48.634;9.516;2022-07-29T00:30:00;18.30;99.90
8338;DHT22;4206;48.634;9.516;2022-07-29T00:32:26;18.30;99.90
8338;DHT22;4206;48.634;9.516;2022-07-29T00:34:52;18.30;99.90
8338;DHT22;4206;48.634;9.516;2022-07-29T00:37:33;18.20;99.90
8338;DHT22;4206;48.634;9.516;2022-07-29T00:39:58;18.30;99.90
8338;DHT22;4206;48.634;9.516;2022-07-29T00:42:24;18.20;99.90
8338;DHT22;4206;48.634;9.516;2022-07-29T00:44:50;18.20;99.90
8338;DHT22;4206;48.634;9.516;2022-07-29T00:47:15;18.20;99.90
8338;DHT22;4206;48.634;9.516;2022-07-29T00:49:41;18.30;99.90
8338;DHT22;4206;48.634;9.516;2022-07-29T00:52:09;18.30;99.90
8338;DHT22;4206;48.634;9.516;2022-07-29T00:54:35;18.40;99.90
8338;DHT22;4206;48.634;9.516;2022-07-29T00:57:03;18.40;99.90
8338;DHT22;4206;48.634;9.516;2022-07-29T00:59:28;18.30;99.90
8338;DHT22;4206;48.634;9.516;2022-07-29T01:01:55;18.30;99.90
8338;DHT22;4206;48.634;9.516;2022-07-29T01:04:21;18.20;99.90
8338;DHT22;4206;48.634;9.516;2022-07-29T01:06:48;18.20;99.90
8338;DHT22;4206;48.634;9.516;2022-07-29T01:09:15;18.10;99.90
8338;DHT22;4206;48.634;9.516;2022-07-29T01:11:42;18.10;99.90
8338;DHT22;4206;48.634;9.516;2022-07-29T01:14:09;18.10;99.90
8338;DHT22;4206;48.634;9.516;2022-07-29T01:16:46;18.00;99.90
8338;DHT22;4206;48.634;9.516;2022-07-29T01:22:04;17.80;99.90
8338;DHT22;4206;48.634;9.516;2022-07-29T01:27:52;17.60;99.90
8338;DHT22;4206;48.634;9.516;2022-07-29T01:30:22;17.60;99.90
8338;DHT22;4206;48.634;9.516;2022-07-29T01:32:54;17.60;99.90
8338;DHT22;4206;48.634;9.516;2022-07-29T01:35:28;17.50;99.90
8338;DHT22;4206;48.634;9.516;2022-07-29T01:38:01;17.50;99.90
8338;DHT22;4206;48.634;9.516;2022-07-29T01:40:41;17.50;99.90
8338;DHT22;4206;48.634;9.516;2022-07-29T01:43:19;17.40;99.90
8338;DHT22;4206;48.634;9.516;2022-07-29T01:45:50;17.40;99.90
8338;DHT22;4206;48.634;9.516;2022-07-29T01:48:21;17.40;99.90
8338;DHT22;4206;48.634;9.516;2022-07-29T01:50:55;17.40;99.90
8338;DHT22;4206;48.634;9.516;2022-07-29T01:53:29;17.40;99.90
8338;DHT22;4206;48.634;9.516;2022-07-29T01:55:57;17.40;99.90
8338;DHT22;4206;48.634;9.516;2022-07-29T01:58:27;17.50;99.90
8338;DHT22;4206;48.634;9.516;2022-07-29T02:00:56;17.40;99.90
8338;DHT22;4206;48.634;9.516;2022-07-29T02:03:24;17.40;99.90
8338;DHT22;4206;48.634;9.516;2022-07-29T02:05:52;17.40;99.90
8338;DHT22;4206;48.634;9.516;2022-07-29T02:08:19;17.40;99.90
8338;DHT22;4206;48.634;9.516;2022-07-29T02:10:46;17.30;99.90
8338;DHT22;4206;48.634;9.516;2022-07-29T02:13:13;17.30;99.90
8338;DHT22;4206;48.634;9.516;2022-07-29T02:15:42;17.30;99.90
8338;DHT22;4206;48.634;9.516;2022-07-29T02:18:13;17.20;99.90
8338;DHT22;4206;48.634;9.516;2022-07-29T02:20:42;17.30;99.90
8338;DHT22;4206;48.634;9.516;2022-07-29T02:23:11;17.20;99.90
8338;DHT22;4206;48.634;9.516;2022-07-29T02:25:38;17.10;99.90
8338;DHT22;4206;48.634;9.516;2022-07-29T02:28:07;17.10;99.90
8338;DHT22;4206;48.634;9.516;2022-07-29T02:30:36;17.10;99.90
8338;DHT22;4206;48.634;9.516;2022-07-29T02:33:04;17.10;99.90
8338;DHT22;4206;48.634;9.516;2022-07-29T02:35:30;17.10;99.90
8338;DHT22;4206;48.634;9.516;2022-07-29T02:37:57;17.10;99.90
8338;DHT22;4206;48.634;9.516;2022-07-29T02:40:39;17.10;99.90
8338;DHT22;4206;48.634;9.516;2022-07-29T02:43:08;17.00;99.90
8338;DHT22;4206;48.634;9.516;2022-07-29T02:45:35;17.10;99.90
8338;DHT22;4206;48.634;9.516;2022-07-29T02:48:06;17.10;99.90
8338;DHT22;4206;48.634;9.516;2022-07-29T02:50:39;17.10;99.90
8338;DHT22;4206;48.634;9.516;2022-07-29T02:53:16;17.10;99.90
8338;DHT22;4206;48.634;9.516;2022-07-29T02:55:43;17.00;99.90
8338;DHT22;4206;48.634;9.516;2022-07-29T03:00:49;17.10;99.90
8338;DHT22;4206;48.634;9.516;2022-07-29T03:03:18;17.10;99.90
8338;DHT22;4206;48.634;9.516;2022-07-29T03:05:44;17.00;99.90
8338;DHT22;4206;48.634;9.516;2022-07-29T03:08:11;16.90;99.90
8338;DHT22;4206;48.634;9.516;2022-07-29T03:10:39;16.90;99.90
8338;DHT22;4206;48.634;9.516;2022-07-29T03:13:07;16.90;99.90
8338;DHT22;4206;48.634;9.516;2022-07-29T03:15:35;16.90;99.90
8338;DHT22;4206;48.634;9.516;2022-07-29T03:18:01;16.80;99.90
8338;DHT22;4206;48.634;9.516;2022-07-29T03:20:27;16.70;99.90
8338;DHT22;4206;48.634;9.516;2022-07-29T03:22:53;16.70;99.90
8338;DHT22;4206;48.634;9.516;2022-07-29T03:25:20;16.70;99.90
8338;DHT22;4206;48.634;9.516;2022-07-29T03:27:46;16.60;99.90
8338;DHT22;4206;48.634;9.516;2022-07-29T03:30:13;16.50;99.90
8338;DHT22;4206;48.634;9.516;2022-07-29T03:32:39;16.50;99.90
8338;DHT22;4206;48.634;9.516;2022-07-29T03:35:06;16.50;99.90
8338;DHT22;4206;48.634;9.516;2022-07-29T03:37:32;16.40;99.90
8338;DHT22;4206;48.634;9.516;2022-07-29T03:40:00;16.40;99.90
8338;DHT22;4206;48.634;9.516;2022-07-29T03:42:31;16.30;99.90
8338;DHT22;4206;48.634;9.516;2022-07-29T03:44:59;16.30;99.90
8338;DHT22;4206;48.634;9.516;2022-07-29T03:47:28;16.30;99.90
8338;DHT22;4206;48.634;9.516;2022-07-29T03:50:02;16.30;99.90
8338;DHT22;4206;48.634;9.516;2022-07-29T03:52:30;16.30;99.90
8338;DHT22;4206;48.634;9.516;2022-07-29T03:54:56;16.20;99.90
8338;DHT22;4206;48.634;9.516;2022-07-29T03:57:25;16.20;99.90
8338;DHT22;4206;48.634;9.516;2022-07-29T03:59:53;16.20;99.90
8338;DHT22;4206;48.634;9.516;2022-07-29T04:02:19;16.20;99.90
8338;DHT22;4206;48.634;9.516;2022-07-29T04:04:45;16.20;99.90
8338;DHT22;4206;48.634;9.516;2022-07-29T04:07:13;16.20;99.90
8338;DHT22;4206;48.634;9.516;2022-07-29T04:09:39;16.20;99.90
8338;DHT22;4206;48.634;9.516;2022-07-29T04:12:05;16.10;99.90
8338;DHT22;4206;48.634;9.516;2022-07-29T04:14:32;16.10;99.90
8338;DHT22;4206;48.634;9.516;2022-07-29T04:16:59;16.10;99.90
8338;DHT22;4206;48.634;9.516;2022-07-29T04:19:24;16.20;99.90
8338;DHT22;4206;48.634;9.516;2022-07-29T04:21:50;16.20;99.90
8338;DHT22;4206;48.634;9.516;2022-07-29T04:24:16;16.20;99.90
8338;DHT22;4206;48.634;9.516;2022-07-29T04:26:42;16.20;99.90
8338;DHT22;4206;48.634;9.516;2022-07-29T04:29:08;16.20;99.90
8338;DHT22;4206;48.634;9.516;2022-07-29T04:31:34;16.30;99.90
8338;DHT22;4206;48.634;9.516;2022-07-29T04:34:00;16.30;99.90
8338;DHT22;4206;48.634;9.516;2022-07-29T04:36:25;16.40;99.90
8338;DHT22;4206;48.634;9.516;2022-07-29T04:38:51;16.40;99.90
8338;DHT22;4206;48.634;9.516;2022-07-29T04:41:16;16.50;99.90
8338;DHT22;4206;48.634;9.516;2022-07-29T04:43:42;16.60;99.90
8338;DHT22;4206;48.634;9.516;2022-07-29T04:46:08;16.60;99.90
8338;DHT22;4206;48.634;9.516;2022-07-29T04:48:34;16.70;99.90
8338;DHT22;4206;48.634;9.516;2022-07-29T04:50:59;16.80;99.90
8338;DHT22;4206;48.634;9.516;2022-07-29T04:53:25;16.80;99.90
8338;DHT22;4206;48.634;9.516;2022-07-29T04:55:51;16.80;99.90
8338;DHT22;4206;48.634;9.516;2022-07-29T04:58:17;16.90;99.90
8338;DHT22;4206;48.634;9.516;2022-07-29T05:00:43;16.90;99.90
8338;DHT22;4206;48.634;9.516;2022-07-29T05:03:08;17.00;99.90
8338;DHT22;4206;48.634;9.516;2022-07-29T05:05:34;17.00;99.90
8338;DHT22;4206;48.634;9.516;2022-07-29T05:08:00;17.00;99.90
8338;DHT22;4206;48.634;9.516;2022-07-29T05:10:25;17.00;99.90
8338;DHT22;4206;48.634;9.516;2022-07-29T05:12:51;17.00;99.90
8338;DHT22;4206;48.634;9.516;2022-07-29T05:15:17;17.00;99.90
8338;DHT22;4206;48.634;9.516;2022-07-29T05:17:44;17.10;99.90
8338;DHT22;4206;48.634;9.516;2022-07-29T05:20:10;17.10;99.90
8338;DHT22;4206;48.634;9.516;2022-07-29T05:22:36;17.20;99.90
8338;DHT22;4206;48.634;9.516;2022-07-29T05:25:01;17.20;99.90
8338;DHT22;4206;48.634;9.516;2022-07-29T05:27:27;17.20;99.90
8338;DHT22;4206;48.634;9.516;2022-07-29T05:29:53;17.30;99.90
8338;DHT22;4206;48.634;9.516;2022-07-29T05:32:19;17.40;99.90
8338;DHT22;4206;48.634;9.516;2022-07-29T05:34:44;17.60;99.90
8338;DHT22;4206;48.634;9.516;2022-07-29T05:37:10;17.80;99.90
8338;DHT22;4206;48.634;9.516;2022-07-29T05:39:36;18.00;99.90
8338;DHT22;4206;48.634;9.516;2022-07-29T05:42:02;18.10;99.90
8338;DHT22;4206;48.634;9.516;2022-07-29T05:44:27;18.30;99.90
8338;DHT22;4206;48.634;9.516;2022-07-29T05:46:53;18.30;99.90
8338;DHT22;4206;48.634;9.516;2022-07-29T05:49:19;18.30;99.90
8338;DHT22;4206;48.634;9.516;2022-07-29T05:51:44;18.40;99.90
8338;DHT22;4206;48.634;9.516;2022-07-29T05:54:10;18.50;99.90
8338;DHT22;4206;48.634;9.516;2022-07-29T05:56:36;18.50;99.90
8338;DHT22;4206;48.634;9.516;2022-07-29T05:59:02;18.80;99.90
8338;DHT22;4206;48.634;9.516;2022-07-29T06:01:28;18.90;99.90
8338;DHT22;4206;48.634;9.516;2022-07-29T06:03:54;19.10;99.90
8338;DHT22;4206;48.634;9.516;2022-07-29T06:06:20;19.20;99.90
8338;DHT22;4206;48.634;9.516;2022-07-29T06:08:45;19.30;99.90
8338;DHT22;4206;48.634;9.516;2022-07-29T06:11:11;19.60;99.90
8338;DHT22;4206;48.634;9.516;2022-07-29T06:13:37;19.90;99.90
8338;DHT22;4206;48.634;9.516;2022-07-29T06:16:02;19.90;99.90
8338;DHT22;4206;48.634;9.516;2022-07-29T06:18:29;19.90;99.90
8338;DHT22;4206;48.634;9.516;2022-07-29T06:20:55;20.10;99.90
8338;DHT22;4206;48.634;9.516;2022-07-29T06:23:20;20.40;99.90
8338;DHT22;4206;48.634;9.516;2022-07-29T06:25:46;20.70;99.90
8338;DHT22;4206;48.634;9.516;2022-07-29T06:28:12;21.00;99.90
8338;DHT22;4206;48.634;9.516;2022-07-29T06:30:39;21.20;99.90
8338;DHT22;4206;48.634;9.516;2022-07-29T06:33:05;21.50;99.90
8338;DHT22;4206;48.634;9.516;2022-07-29T06:35:33;21.50;99.90
8338;DHT22;4206;48.634;9.516;2022-07-29T06:38:01;21.50;99.90
8338;DHT22;4206;48.634;9.516;2022-07-29T06:40:27;21.60;99.90
8338;DHT22;4206;48.634;9.516;2022-07-29T06:43:08;21.90;99.90
8338;DHT22;4206;48.634;9.516;2022-07-29T06:45:34;22.10;99.90
8338;DHT22;4206;48.634;9.516;2022-07-29T06:48:00;22.10;99.90
8338;DHT22;4206;48.634;9.516;2022-07-29T06:50:25;22.10;99.90
8338;DHT22;4206;48.634;9.516;2022-07-29T06:52:51;22.10;99.90
8338;DHT22;4206;48.634;9.516;2022-07-29T06:55:17;22.20;99.90
8338;DHT22;4206;48.634;9.516;2022-07-29T06:57:45;22.20;99.90
8338;DHT22;4206;48.634;9.516;2022-07-29T07:00:12;22.50;99.90
8338;DHT22;4206;48.634;9.516;2022-07-29T07:02:38;22.70;99.90
8338;DHT22;4206;48.634;9.516;2022-07-29T07:05:04;22.80;99.90
8338;DHT22;4206;48.634;9.516;2022-07-29T07:07:31;23.20;99.90
8338;DHT22;4206;48.634;9.516;2022-07-29T07:09:56;23.50;99.90
8338;DHT22;4206;48.634;9.516;2022-07-29T07:12:22;23.70;99.90
8338;DHT22;4206;48.634;9.516;2022-07-29T07:14:48;24.00;99.90
8338;DHT22;4206;48.634;9.516;2022-07-29T07:17:14;24.20;99.90
8338;DHT22;4206;48.634;9.516;2022-07-29T07:19:39;24.50;99.90
8338;DHT22;4206;48.634;9.516;2022-07-29T07:22:05;24.40;99.90
8338;DHT22;4206;48.634;9.516;2022-07-29T07:24:31;24.40;99.90
8338;DHT22;4206;48.634;9.516;2022-07-29T07:26:56;24.70;99.90
8338;DHT22;4206;48.634;9.516;2022-07-29T07:29:22;24.60;99.90
8338;DHT22;4206;48.634;9.516;2022-07-29T07:31:48;24.60;99.90
8338;DHT22;4206;48.634;9.516;2022-07-29T07:34:14;24.90;99.90
8338;DHT22;4206;48.634;9.516;2022-07-29T07:36:39;25.30;99.90
8338;DHT22;4206;48.634;9.516;2022-07-29T07:39:05;25.60;99.90
8338;DHT22;4206;48.634;9.516;2022-07-29T07:41:31;25.70;99.90
8338;DHT22;4206;48.634;9.516;2022-07-29T07:43:56;25.20;99.90
8338;DHT22;4206;48.634;9.516;2022-07-29T07:46:22;25.00;99.90
8338;DHT22;4206;48.634;9.516;2022-07-29T07:48:48;24.70;99.90
8338;DHT22;4206;48.634;9.516;2022-07-29T07:51:13;24.60;99.90
8338;DHT22;4206;48.634;9.516;2022-07-29T07:53:39;24.10;99.90
8338;DHT22;4206;48.634;9.516;2022-07-29T07:56:05;24.10;99.90
8338;DHT22;4206;48.634;9.516;2022-07-29T07:58:32;24.30;99.90
8338;DHT22;4206;48.634;9.516;2022-07-29T08:00:57;24.60;99.90
8338;DHT22;4206;48.634;9.516;2022-07-29T08:03:23;24.90;99.90
8338;DHT22;4206;48.634;9.516;2022-07-29T08:05:49;25.40;99.90
8338;DHT22;4206;48.634;9.516;2022-07-29T08:08:17;26.00;99.90
8338;DHT22;4206;48.634;9.516;2022-07-29T08:10:43;26.30;99.90
8338;DHT22;4206;48.634;9.516;2022-07-29T08:13:25;26.30;99.90
8338;DHT22;4206;48.634;9.516;2022-07-29T08:15:53;26.90;99.90
8338;DHT22;4206;48.634;9.516;2022-07-29T08:18:28;27.00;99.90
8338;DHT22;4206;48.634;9.516;2022-07-29T08:20:54;27.40;99.90
8338;DHT22;4206;48.634;9.516;2022-07-29T08:23:20;27.40;99.90
8338;DHT22;4206;48.634;9.516;2022-07-29T08:25:46;27.70;99.90
8338;DHT22;4206;48.634;9.516;2022-07-29T08:28:12;27.90;99.90
8338;DHT22;4206;48.634;9.516;2022-07-29T08:30:37;28.20;99.90
8338;DHT22;4206;48.634;9.516;2022-07-29T08:33:03;28.90;99.90
8338;DHT22;4206;48.634;9.516;2022-07-29T08:35:29;28.80;99.90
8338;DHT22;4206;48.634;9.516;2022-07-29T08:37:55;28.60;99.90
8338;DHT22;4206;48.634;9.516;2022-07-29T08:40:22;28.80;99.90
8338;DHT22;4206;48.634;9.516;2022-07-29T08:42:49;29.10;99.90
8338;DHT22;4206;48.634;9.516;2022-07-29T08:45:15;30.10;99.90
8338;DHT22;4206;48.634;9.516;2022-07-29T08:47:41;30.20;99.90
8338;DHT22;4206;48.634;9.516;2022-07-29T08:50:09;30.10;99.90
8338;DHT22;4206;48.634;9.516;2022-07-29T08:52:37;30.80;99.90
8338;DHT22;4206;48.634;9.516;2022-07-29T08:55:05;31.40;99.90
8338;DHT22;4206;48.634;9.516;2022-07-29T08:57:33;31.90;99.90
8338;DHT22;4206;48.634;9.516;2022-07-29T09:00:00;32.10;99.90
8338;DHT22;4206;48.634;9.516;2022-07-29T09:02:29;32.60;99.90
8338;DHT22;4206;48.634;9.516;2022-07-29T09:04:58;33.00;99.90
8338;DHT22;4206;48.634;9.516;2022-07-29T09:07:25;32.70;99.90
8338;DHT22;4206;48.634;9.516;2022-07-29T09:09:51;32.10;99.90
8338;DHT22;4206;48.634;9.516;2022-07-29T09:12:17;33.20;99.90
8338;DHT22;4206;48.634;9.516;2022-07-29T09:14:43;33.20;99.90
8338;DHT22;4206;48.634;9.516;2022-07-29T09:17:09;33.40;99.90
8338;DHT22;4206;48.634;9.516;2022-07-29T09:19:36;33.90;99.90
8338;DHT22;4206;48.634;9.516;2022-07-29T09:22:04;33.80;99.90
8338;DHT22;4206;48.634;9.516;2022-07-29T09:27:01;34.00;99.90
8338;DHT22;4206;48.634;9.516;2022-07-29T09:29:27;34.20;99.90
8338;DHT22;4206;48.634;9.516;2022-07-29T09:31:54;33.30;99.90
8338;DHT22;4206;48.634;9.516;2022-07-29T09:34:25;33.40;99.90
8338;DHT22;4206;48.634;9.516;2022-07-29T09:36:52;34.20;99.50
8338;DHT22;4206;48.634;9.516;2022-07-29T09:39:34;33.90;99.90
8338;DHT22;4206;48.634;9.516;2022-07-29T09:42:04;33.50;99.90
8338;DHT22;4206;48.634;9.516;2022-07-29T09:47:11;33.90;99.10
8338;DHT22;4206;48.634;9.516;2022-07-29T09:49:54;33.40;98.80
8338;DHT22;4206;48.634;9.516;2022-07-29T09:52:20;32.20;99.30
8338;DHT22;4206;48.634;9.516;2022-07-29T09:54:46;31.70;96.80
8338;DHT22;4206;48.634;9.516;2022-07-29T09:57:28;32.20;96.40
8338;DHT22;4206;48.634;9.516;2022-07-29T09:59:58;33.20;95.50
8338;DHT22;4206;48.634;9.516;2022-07-29T10:02:28;33.00;97.40
8338;DHT22;4206;48.634;9.516;2022-07-29T10:04:55;33.40;94.60
8338;DHT22;4206;48.634;9.516;2022-07-29T10:07:21;33.10;96.30
8338;DHT22;4206;48.634;9.516;2022-07-29T10:09:55;33.00;96.70
8338;DHT22;4206;48.634;9.516;2022-07-29T10:12:22;32.50;96.30
8338;DHT22;4206;48.634;9.516;2022-07-29T10:14:50;31.90;95.80
8338;DHT22;4206;48.634;9.516;2022-07-29T10:17:16;31.70;96.90
8338;DHT22;4206;48.634;9.516;2022-07-29T10:19:42;31.20;97.20
8338;DHT22;4206;48.634;9.516;2022-07-29T10:22:09;31.80;94.00
8338;DHT22;4206;48.634;9.516;2022-07-29T10:24:38;32.30;95.90
8338;DHT22;4206;48.634;9.516;2022-07-29T10:27:05;32.70;96.40
8338;DHT22;4206;48.634;9.516;2022-07-29T10:29:31;33.20;95.50
8338;DHT22;4206;48.634;9.516;2022-07-29T10:37:30;34.50;92.50
8338;DHT22;4206;48.634;9.516;2022-07-29T10:40:15;33.70;93.10
8338;DHT22;4206;48.634;9.516;2022-07-29T10:43:07;33.10;93.60
8338;DHT22;4206;48.634;9.516;2022-07-29T10:45:40;32.70;93.00
8338;DHT22;4206;48.634;9.516;2022-07-29T10:48:06;32.10;94.80
8338;DHT22;4206;48.634;9.516;2022-07-29T10:53:51;31.20;94.80
8338;DHT22;4206;48.634;9.516;2022-07-29T10:56:33;30.80;96.80
8338;DHT22;4206;48.634;9.516;2022-07-29T11:01:46;30.20;97.50
8338;DHT22;4206;48.634;9.516;2022-07-29T11:04:12;30.10;97.30
8338;DHT22;4206;48.634;9.516;2022-07-29T11:09:27;29.70;98.90
8338;DHT22;4206;48.634;9.516;2022-07-29T11:11:55;29.60;99.70
8338;DHT22;4206;48.634;9.516;2022-07-29T11:17:17;29.60;98.10
8338;DHT22;4206;48.634;9.516;2022-07-29T11:19:44;29.60;98.20
8338;DHT22;4206;48.634;9.516;2022-07-29T11:22:11;29.80;99.80
8338;DHT22;4206;48.634;9.516;2022-07-29T11:24:37;29.90;98.50
8338;DHT22;4206;48.634;9.516;2022-07-29T11:29:35;29.60;99.70
8338;DHT22;4206;48.634;9.516;2022-07-29T11:32:13;29.50;99.40
8338;DHT22;4206;48.634;9.516;2022-07-29T11:34:41;29.40;99.60
8338;DHT22;4206;48.634;9.516;2022-07-29T11:39:36;29.30;99.90
8338;DHT22;4206;48.634;9.516;2022-07-29T11:47:24;28.80;99.90
8338;DHT22;4206;48.634;9.516;2022-07-29T11:49:51;28.50;99.90
8338;DHT22;4206;48.634;9.516;2022-07-29T11:52:18;28.20;99.90
8338;DHT22;4206;48.634;9.516;2022-07-29T11:54:44;27.90;99.90
8338;DHT22;4206;48.634;9.516;2022-07-29T11:57:12;27.40;99.90
8338;DHT22;4206;48.634;9.516;2022-07-29T11:59:40;27.60;99.90
8338;DHT22;4206;48.634;9.516;2022-07-29T12:02:08;27.80;98.60
8338;DHT22;4206;48.634;9.516;2022-07-29T12:04:55;28.00;98.60
8338;DHT22;4206;48.634;9.516;2022-07-29T12:07:30;27.60;98.60
8338;DHT22;4206;48.634;9.516;2022-07-29T12:09:56;27.70;99.30
8338;DHT22;4206;48.634;9.516;2022-07-29T12:12:22;28.00;99.40
8338;DHT22;4206;48.634;9.516;2022-07-29T12:14:48;27.90;99.70
8338;DHT22;4206;48.634;9.516;2022-07-29T12:17:31;27.40;99.90
8338;DHT22;4206;48.634;9.516;2022-07-29T12:19:58;27.20;99.90
8338;DHT22;4206;48.634;9.516;2022-07-29T12:22:26;27.00;99.90
8338;DHT22;4206;48.634;9.516;2022-07-29T12:24:53;26.60;99.90
8338;DHT22;4206;48.634;9.516;2022-07-29T12:27:19;26.20;99.90
8338;DHT22;4206;48.634;9.516;2022-07-29T12:32:35;25.60;99.90
8338;DHT22;4206;48.634;9.516;2022-07-29T12:35:06;25.80;99.90
8338;DHT22;4206;48.634;9.516;2022-07-29T12:37:35;26.10;99.90
8338;DHT22;4206;48.634;9.516;2022-07-29T12:40:03;26.30;99.90
8338;DHT22;4206;48.634;9.516;2022-07-29T12:42:29;26.00;99.90
8338;DHT22;4206;48.634;9.516;2022-07-29T12:44:55;26.50;99.90
8338;DHT22;4206;48.634;9.516;2022-07-29T12:47:21;26.40;99.90
8338;DHT22;4206;48.634;9.516;2022-07-29T12:49:47;26.60;99.90
8338;DHT22;4206;48.634;9.516;2022-07-29T12:52:30;26.00;99.90
8338;DHT22;4206;48.634;9.516;2022-07-29T12:54:56;25.60;99.90
8338;DHT22;4206;48.634;9.516;2022-07-29T12:57:22;25.40;99.90
8338;DHT22;4206;48.634;9.516;2022-07-29T13:00:05;24.90;99.90
8338;DHT22;4206;48.634;9.516;2022-07-29T13:02:33;24.30;99.90
8338;DHT22;4206;48.634;9.516;2022-07-29T13:05:00;23.80;99.90
8338;DHT22;4206;48.634;9.516;2022-07-29T13:07:29;23.70;99.90
8338;DHT22;4206;48.634;9.516;2022-07-29T13:10:11;23.40;99.90
8338;DHT22;4206;48.634;9.516;2022-07-29T13:12:39;23.30;99.90
8338;DHT22;4206;48.634;9.516;2022-07-29T13:15:14;23.20;99.90
8338;DHT22;4206;48.634;9.516;2022-07-29T13:17:41;22.80;99.90
8338;DHT22;4206;48.634;9.516;2022-07-29T13:20:09;22.50;99.90
8338;DHT22;4206;48.634;9.516;2022-07-29T13:22:38;22.30;99.90
8338;DHT22;4206;48.634;9.516;2022-07-29T13:25:04;22.30;99.90
8338;DHT22;4206;48.634;9.516;2022-07-29T13:27:34;22.50;99.90
8338;DHT22;4206;48.634;9.516;2022-07-29T13:30:01;22.50;99.90
8338;DHT22;4206;48.634;9.516;2022-07-29T13:32:28;22.60;99.90
8338;DHT22;4206;48.634;9.516;2022-07-29T13:34:55;22.90;99.90
8338;DHT22;4206;48.634;9.516;2022-07-29T13:37:21;23.30;99.90
8338;DHT22;4206;48.634;9.516;2022-07-29T13:39:47;23.70;99.90
8338;DHT22;4206;48.634;9.516;2022-07-29T13:42:13;24.00;99.90
8338;DHT22;4206;48.634;9.516;2022-07-29T13:44:40;24.30;99.90
8338;DHT22;4206;48.634;9.516;2022-07-29T13:47:07;24.80;99.90
8338;DHT22;4206;48.634;9.516;2022-07-29T13:49:33;25.00;99.90
8338;DHT22;4206;48.634;9.516;2022-07-29T13:51:59;25.10;99.90
8338;DHT22;4206;48.634;9.516;2022-07-29T13:54:25;25.50;99.90
8338;DHT22;4206;48.634;9.516;2022-07-29T13:56:51;26.00;99.90
8338;DHT22;4206;48.634;9.516;2022-07-29T13:59:17;25.70;99.90
8338;DHT22;4206;48.634;9.516;2022-07-29T14:01:43;25.40;99.90
8338;DHT22;4206;48.634;9.516;2022-07-29T14:04:09;25.10;99.90
8338;DHT22;4206;48.634;9.516;2022-07-29T14:06:35;25.10;99.90
8338;DHT22;4206;48.634;9.516;2022-07-29T14:09:03;25.00;99.90
8338;DHT22;4206;48.634;9.516;2022-07-29T14:11:32;24.80;99.90
8338;DHT22;4206;48.634;9.516;2022-07-29T14:13:58;24.90;99.90
8338;DHT22;4206;48.634;9.516;2022-07-29T14:16:23;24.50;99.90
8338;DHT22;4206;48.634;9.516;2022-07-29T14:18:49;24.20;99.90
8338;DHT22;4206;48.634;9.516;2022-07-29T14:21:14;23.80;99.90
8338;DHT22;4206;48.634;9.516;2022-07-29T14:23:40;23.70;99.90
8338;DHT22;4206;48.634;9.516;2022-07-29T14:26:06;23.60;99.90
8338;DHT22;4206;48.634;9.516;2022-07-29T14:28:32;23.30;99.90
8338;DHT22;4206;48.634;9.516;2022-07-29T14:30:57;23.20;99.90
8338;DHT22;4206;48.634;9.516;2022-07-29T14:33:23;23.30;99.90
8338;DHT22;4206;48.634;9.516;2022-07-29T14:35:49;23.20;99.90
8338;DHT22;4206;48.634;9.516;2022-07-29T14:38:14;23.20;99.90
8338;DHT22;4206;48.634;9.516;2022-07-29T14:40:40;23.40;99.90
8338;DHT22;4206;48.634;9.516;2022-07-29T14:43:06;23.30;99.90
8338;DHT22;4206;48.634;9.516;2022-07-29T14:45:31;23.20;99.90
8338;DHT22;4206;48.634;9.516;2022-07-29T14:47:57;23.10;99.90
8338;DHT22;4206;48.634;9.516;2022-07-29T14:50:24;23.30;99.90
8338;DHT22;4206;48.634;9.516;2022-07-29T14:52:51;23.30;99.90
8338;DHT22;4206;48.634;9.516;2022-07-29T14:55:17;23.20;99.90
8338;DHT22;4206;48.634;9.516;2022-07-29T14:57:43;23.10;99.90
8338;DHT22;4206;48.634;9.516;2022-07-29T15:00:09;23.10;99.90
8338;DHT22;4206;48.634;9.516;2022-07-29T15:02:35;23.20;99.90
8338;DHT22;4206;48.634;9.516;2022-07-29T15:05:01;23.30;99.90
8338;DHT22;4206;48.634;9.516;2022-07-29T15:07:27;23.50;99.90
8338;DHT22;4206;48.634;9.516;2022-07-29T15:09:53;23.80;99.90
8338;DHT22;4206;48.634;9.516;2022-07-29T15:12:19;23.80;99.90
8338;DHT22;4206;48.634;9.516;2022-07-29T15:14:44;23.80;99.90
8338;DHT22;4206;48.634;9.516;2022-07-29T15:17:10;23.80;99.90
8338;DHT22;4206;48.634;9.516;2022-07-29T15:19:36;23.80;99.90
8338;DHT22;4206;48.634;9.516;2022-07-29T15:22:02;23.80;99.90
8338;DHT22;4206;48.634;9.516;2022-07-29T15:24:30;23.80;99.90
8338;DHT22;4206;48.634;9.516;2022-07-29T15:26:55;23.70;99.90
8338;DHT22;4206;48.634;9.516;2022-07-29T15:29:21;23.70;99.90
8338;DHT22;4206;48.634;9.516;2022-07-29T15:31:47;23.70;99.90
8338;DHT22;4206;48.634;9.516;2022-07-29T15:34:13;23.80;99.90
8338;DHT22;4206;48.634;9.516;2022-07-29T15:36:39;23.80;99.90
8338;DHT22;4206;48.634;9.516;2022-07-29T15:39:04;23.70;99.90
8338;DHT22;4206;48.634;9.516;2022-07-29T15:41:30;23.80;99.90
8338;DHT22;4206;48.634;9.516;2022-07-29T15:43:56;23.60;99.90
8338;DHT22;4206;48.634;9.516;2022-07-29T15:46:22;23.70;99.90
8338;DHT22;4206;48.634;9.516;2022-07-29T15:49:04;23.70;99.90
8338;DHT22;4206;48.634;9.516;2022-07-29T15:51:31;23.80;99.90
8338;DHT22;4206;48.634;9.516;2022-07-29T15:53:56;23.70;99.90
8338;DHT22;4206;48.634;9.516;2022-07-29T15:56:23;23.80;99.90
8338;DHT22;4206;48.634;9.516;2022-07-29T15:58:49;23.70;99.90
8338;DHT22;4206;48.634;9.516;2022-07-29T16:01:14;23.70;99.90
8338;DHT22;4206;48.634;9.516;2022-07-29T16:03:40;23.60;99.90
8338;DHT22;4206;48.634;9.516;2022-07-29T16:06:06;23.50;99.90
8338;DHT22;4206;48.634;9.516;2022-07-29T16:08:32;23.50;99.90
8338;DHT22;4206;48.634;9.516;2022-07-29T16:10:57;23.60;99.90
8338;DHT22;4206;48.634;9.516;2022-07-29T16:13:23;23.50;99.90
8338;DHT22;4206;48.634;9.516;2022-07-29T16:15:48;23.60;99.90
8338;DHT22;4206;48.634;9.516;2022-07-29T16:18:14;23.80;99.90
8338;DHT22;4206;48.634;9.516;2022-07-29T16:20:40;23.80;99.90
8338;DHT22;4206;48.634;9.516;2022-07-29T16:23:06;23.90;99.90
8338;DHT22;4206;48.634;9.516;2022-07-29T16:25:35;23.90;99.90
8338;DHT22;4206;48.634;9.516;2022-07-29T16:28:01;23.80;99.90
8338;DHT22;4206;48.634;9.516;2022-07-29T16:30:27;23.70;99.90
8338;DHT22;4206;48.634;9.516;2022-07-29T16:32:52;23.70;99.90
8338;DHT22;4206;48.634;9.516;2022-07-29T16:35:18;24.00;99.90
8338;DHT22;4206;48.634;9.516;2022-07-29T16:37:44;23.90;99.90
8338;DHT22;4206;48.634;9.516;2022-07-29T16:40:10;23.90;99.90
8338;DHT22;4206;48.634;9.516;2022-07-29T16:42:36;23.90;99.90
8338;DHT22;4206;48.634;9.516;2022-07-29T16:45:02;23.90;99.90
8338;DHT22;4206;48.634;9.516;2022-07-29T16:47:28;23.90;99.90